createdAt,value
2022-08-22T00:00:16.440Z,2.80
2022-08-22T00:02:44.408Z,1.73
2022-08-22T00:02:46.943Z,1.63
2022-08-22T00:02:49.417Z,1.53
2022-08-22T00:02:58.997Z,2.43
2022-08-22T00:03:06.941Z,3.13
2022-08-22T00:05:29.767Z,2.10
2022-08-22T00:07:56.418Z,4.30
2022-08-22T00:10:25.498Z,2.67
2022-08-22T00:12:52.404Z,1.90
2022-08-22T00:15:43.511Z,2.33
2022-08-22T00:18:07.240Z,1.97
2022-08-22T00:20:33.840Z,2.07
2022-08-22T00:23:00.609Z,2.27
2022-08-22T00:25:27.165Z,2.17
2022-08-22T00:27:54.020Z,2.20
2022-08-22T00:30:20.636Z,2.33
2022-08-22T00:32:47.196Z,2.40
2022-08-22T00:35:13.749Z,2.57
2022-08-22T00:37:40.266Z,2.17
2022-08-22T00:40:06.830Z,2.23
2022-08-22T00:42:33.411Z,2.07
2022-08-22T00:45:00.136Z,2.03
2022-08-22T00:47:26.671Z,2.20
2022-08-22T00:49:53.234Z,2.00
2022-08-22T00:52:19.822Z,2.20
2022-08-22T00:54:47.377Z,2.67
2022-08-22T00:57:13.993Z,2.50
2022-08-22T00:59:40.839Z,2.70
2022-08-22T01:02:07.429Z,2.20
2022-08-22T01:04:34.065Z,2.87
2022-08-22T01:07:00.758Z,2.53
2022-08-22T01:09:27.351Z,3.57
2022-08-22T01:11:53.992Z,2.47
2022-08-22T01:14:20.784Z,2.83
2022-08-22T01:17:01.778Z,2.77
2022-08-22T01:19:28.348Z,2.80
2022-08-22T01:21:55.343Z,2.43
2022-08-22T01:24:21.878Z,3.03
2022-08-22T01:26:50.922Z,3.30
2022-08-22T01:29:17.972Z,2.80
2022-08-22T01:31:44.786Z,2.70
2022-08-22T01:34:12.849Z,2.17
2022-08-22T01:36:40.345Z,2.63
2022-08-22T01:39:06.887Z,2.10
2022-08-22T01:41:33.548Z,2.80
2022-08-22T01:44:01.177Z,3.00
2022-08-22T01:46:27.871Z,2.37
2022-08-22T01:48:54.480Z,2.80
2022-08-22T01:51:21.111Z,2.77
2022-08-22T01:53:47.661Z,3.07
2022-08-22T01:56:14.236Z,2.37
2022-08-22T01:58:40.797Z,2.63
2022-08-22T02:01:11.368Z,3.33
2022-08-22T02:03:38.009Z,2.80
2022-08-22T02:06:04.658Z,2.97
2022-08-22T02:08:31.254Z,3.23
2022-08-22T02:10:57.956Z,3.33
2022-08-22T02:13:24.600Z,3.30
2022-08-22T02:15:51.208Z,3.53
2022-08-22T02:18:18.090Z,3.33
2022-08-22T02:20:44.674Z,2.97
2022-08-22T02:23:11.500Z,3.13
2022-08-22T02:25:38.072Z,3.20
2022-08-22T02:28:04.631Z,3.10
2022-08-22T02:30:31.214Z,2.63
2022-08-22T02:32:58.198Z,3.57
2022-08-22T02:35:24.932Z,4.47
2022-08-22T02:37:51.482Z,3.60
2022-08-22T02:40:18.099Z,3.40
2022-08-22T02:42:46.631Z,2.93
2022-08-22T02:45:13.471Z,3.03
2022-08-22T02:47:40.251Z,3.63
2022-08-22T02:50:06.875Z,2.80
2022-08-22T02:52:40.003Z,2.70
2022-08-22T02:55:06.566Z,3.17
2022-08-22T02:57:36.142Z,3.13
2022-08-22T03:00:30.632Z,3.67
2022-08-22T03:02:59.516Z,3.03
2022-08-22T03:05:26.305Z,3.50
2022-08-22T03:07:53.183Z,3.43
2022-08-22T03:10:19.820Z,3.20
2022-08-22T03:12:46.446Z,4.33
2022-08-22T03:15:13.119Z,4.57
2022-08-22T03:17:39.717Z,3.80
2022-08-22T03:20:06.936Z,3.90
2022-08-22T03:22:33.503Z,3.87
2022-08-22T03:25:00.248Z,4.13
2022-08-22T03:27:27.783Z,3.03
2022-08-22T03:29:59.874Z,4.00
2022-08-22T03:32:26.442Z,3.90
2022-08-22T03:34:53.000Z,4.30
2022-08-22T03:37:19.925Z,4.43
2022-08-22T03:39:46.542Z,4.00
2022-08-22T03:42:13.131Z,4.60
2022-08-22T03:44:39.746Z,3.40
2022-08-22T03:47:06.294Z,4.70
2022-08-22T03:49:32.824Z,4.03
2022-08-22T03:52:00.264Z,4.23
2022-08-22T03:54:30.516Z,3.43
2022-08-22T03:57:00.437Z,3.80
2022-08-22T03:59:27.190Z,4.43
2022-08-22T04:01:53.931Z,4.37
2022-08-22T04:04:20.512Z,4.60
2022-08-22T04:06:48.298Z,4.30
2022-08-22T04:09:15.136Z,4.00
2022-08-22T04:11:41.726Z,4.30
2022-08-22T04:14:08.509Z,4.67
2022-08-22T04:16:35.272Z,3.83
2022-08-22T04:19:01.836Z,3.87
2022-08-22T04:21:28.452Z,3.70
2022-08-22T04:23:55.561Z,4.00
2022-08-22T04:26:22.095Z,4.53
2022-08-22T04:28:49.023Z,4.30
2022-08-22T04:31:17.228Z,4.47
2022-08-22T04:33:44.788Z,3.50
2022-08-22T04:36:12.093Z,4.13
2022-08-22T04:38:38.873Z,4.20
2022-08-22T04:41:05.408Z,3.63
2022-08-22T04:43:31.942Z,3.97
2022-08-22T04:45:58.890Z,4.67
2022-08-22T04:48:25.458Z,3.80
2022-08-22T04:50:52.029Z,4.43
2022-08-22T04:53:18.726Z,3.70
2022-08-22T04:55:45.302Z,3.97
2022-08-22T04:58:11.925Z,3.70
2022-08-22T05:00:38.616Z,3.60
2022-08-22T05:03:05.157Z,3.90
2022-08-22T05:05:31.961Z,3.60
2022-08-22T05:07:58.876Z,3.50
2022-08-22T05:10:25.727Z,3.67
2022-08-22T05:12:52.298Z,3.20
2022-08-22T05:15:23.266Z,3.93
2022-08-22T05:17:50.130Z,4.13
2022-08-22T05:20:16.675Z,3.13
2022-08-22T05:22:43.311Z,3.87
2022-08-22T05:25:11.009Z,3.67
2022-08-22T05:27:37.573Z,4.07
2022-08-22T05:30:04.193Z,3.00
2022-08-22T05:32:30.738Z,2.97
2022-08-22T05:34:57.337Z,3.90
2022-08-22T05:37:23.943Z,4.17
2022-08-22T05:39:50.613Z,3.80
2022-08-22T05:42:17.461Z,3.60
2022-08-22T05:44:44.032Z,3.63
2022-08-22T05:47:10.601Z,4.17
2022-08-22T05:49:37.200Z,3.77
2022-08-22T05:52:03.979Z,4.20
2022-08-22T05:54:35.998Z,3.80
2022-08-22T05:57:06.148Z,3.50
2022-08-22T05:59:34.433Z,3.93
2022-08-22T06:02:01.037Z,3.37
2022-08-22T06:04:27.761Z,3.20
2022-08-22T06:06:54.305Z,4.33
2022-08-22T06:09:20.894Z,4.23
2022-08-22T06:11:52.062Z,3.50
2022-08-22T06:14:18.808Z,3.13
2022-08-22T06:16:51.327Z,3.27
2022-08-22T06:19:19.080Z,3.70
2022-08-22T06:21:46.545Z,2.93
2022-08-22T06:24:13.929Z,3.67
2022-08-22T06:26:40.560Z,3.47
2022-08-22T06:29:07.320Z,2.80
2022-08-22T06:31:33.917Z,3.40
2022-08-22T06:34:00.524Z,3.60
2022-08-22T06:36:30.458Z,3.83
2022-08-22T06:38:57.325Z,4.53
2022-08-22T06:41:24.176Z,5.77
2022-08-22T06:43:52.237Z,4.27
2022-08-22T06:46:18.775Z,4.03
2022-08-22T06:48:45.339Z,3.07
2022-08-22T06:51:12.317Z,3.23
2022-08-22T06:53:39.600Z,3.63
2022-08-22T06:56:13.136Z,2.80
2022-08-22T06:58:39.730Z,3.13
2022-08-22T07:01:11.344Z,3.10
2022-08-22T07:03:39.097Z,3.07
2022-08-22T07:06:05.752Z,2.70
2022-08-22T07:08:34.941Z,2.30
2022-08-22T07:11:05.474Z,2.00
2022-08-22T07:13:32.052Z,3.10
2022-08-22T07:15:59.800Z,3.07
2022-08-22T07:18:26.984Z,3.50
2022-08-22T07:20:55.146Z,2.33
2022-08-22T07:23:21.889Z,2.17
2022-08-22T07:25:48.525Z,2.40
2022-08-22T07:28:16.247Z,2.33
2022-08-22T07:30:42.988Z,3.00
2022-08-22T07:33:26.716Z,2.97
2022-08-22T07:35:53.915Z,2.77
2022-08-22T07:38:20.477Z,2.97
2022-08-22T07:40:47.565Z,2.47
2022-08-22T07:43:14.128Z,2.53
2022-08-22T07:45:40.756Z,2.63
2022-08-22T07:48:07.391Z,3.03
2022-08-22T07:50:33.954Z,2.53
2022-08-22T07:53:00.509Z,2.73
2022-08-22T07:55:27.196Z,2.23
2022-08-22T07:57:54.388Z,2.60
2022-08-22T08:00:21.059Z,2.30
2022-08-22T08:02:47.766Z,2.50
2022-08-22T08:05:34.459Z,2.00
2022-08-22T08:08:01.035Z,2.10
2022-08-22T08:10:27.639Z,1.90
2022-08-22T08:13:01.765Z,2.10
2022-08-22T08:15:28.702Z,1.67
2022-08-22T08:17:55.486Z,2.73
2022-08-22T08:20:22.198Z,2.33
2022-08-22T08:22:48.820Z,2.00
2022-08-22T08:25:15.379Z,2.20
2022-08-22T08:28:00.977Z,1.90
2022-08-22T08:30:28.908Z,2.80
2022-08-22T08:32:57.576Z,2.33
2022-08-22T08:36:02.010Z,1.97
2022-08-22T08:38:31.097Z,1.77
2022-08-22T08:40:57.662Z,2.23
2022-08-22T08:43:28.206Z,2.30
2022-08-22T08:45:56.428Z,2.13
2022-08-22T08:48:25.865Z,2.17
2022-08-22T08:50:52.559Z,1.80
2022-08-22T08:53:19.218Z,2.20
2022-08-22T08:55:51.095Z,2.20
2022-08-22T08:58:17.872Z,1.93
2022-08-22T09:00:44.544Z,1.60
2022-08-22T09:03:11.236Z,1.90
2022-08-22T09:05:42.199Z,2.07
2022-08-22T09:08:11.740Z,1.97
2022-08-22T09:10:38.533Z,2.27
2022-08-22T09:13:11.573Z,1.90
2022-08-22T09:16:02.280Z,1.87
2022-08-22T09:18:32.088Z,2.40
2022-08-22T09:20:59.015Z,1.50
2022-08-22T09:23:25.815Z,1.50
2022-08-22T09:25:52.364Z,1.87
2022-08-22T09:28:18.887Z,2.00
2022-08-22T09:30:45.627Z,1.70
2022-08-22T09:33:20.613Z,2.15
2022-08-22T09:35:50.773Z,2.07
2022-08-22T09:38:18.576Z,2.38
2022-08-22T09:40:46.196Z,2.22
2022-08-22T09:43:13.007Z,1.92
2022-08-22T09:45:47.900Z,1.98
2022-08-22T09:48:16.792Z,2.00
2022-08-22T09:50:43.368Z,1.75
2022-08-22T09:53:10.445Z,2.25
2022-08-22T09:55:38.125Z,2.40
2022-08-22T09:58:06.216Z,2.17
2022-08-22T10:00:38.252Z,2.08
2022-08-22T10:03:05.094Z,1.73
2022-08-22T10:05:40.675Z,1.73
2022-08-22T10:08:11.334Z,2.40
2022-08-22T10:10:38.133Z,2.25
2022-08-22T10:13:10.432Z,2.80
2022-08-22T10:15:37.811Z,2.65
2022-08-22T10:18:04.538Z,2.50
2022-08-22T10:20:31.430Z,2.55
2022-08-22T10:23:00.961Z,2.63
2022-08-22T10:25:28.425Z,2.70
2022-08-22T10:27:55.228Z,2.80
2022-08-22T10:30:21.768Z,2.88
2022-08-22T10:32:48.405Z,2.70
2022-08-22T10:35:16.838Z,2.72
2022-08-22T10:37:45.915Z,2.53
2022-08-22T10:40:13.137Z,3.00
2022-08-22T10:42:39.820Z,3.00
2022-08-22T10:45:08.250Z,2.53
2022-08-22T10:47:35.155Z,2.78
2022-08-22T10:50:02.313Z,2.50
2022-08-22T10:52:35.358Z,2.50
2022-08-22T10:55:01.921Z,3.05
2022-08-22T10:57:36.521Z,2.33
2022-08-22T11:00:03.074Z,2.40
2022-08-22T11:02:30.477Z,2.50
2022-08-22T11:04:58.146Z,2.53
2022-08-22T11:07:25.016Z,2.90
2022-08-22T11:09:52.433Z,2.60
2022-08-22T11:12:20.996Z,2.50
2022-08-22T11:14:47.568Z,2.78
2022-08-22T11:17:28.934Z,2.50
2022-08-22T11:20:00.964Z,1.85
2022-08-22T11:22:27.622Z,2.20
2022-08-22T11:24:56.738Z,2.33
2022-08-22T11:27:25.378Z,2.38
2022-08-22T11:30:05.418Z,3.20
2022-08-22T11:32:31.953Z,2.60
2022-08-22T11:34:58.537Z,3.13
2022-08-22T11:37:42.443Z,1.83
2022-08-22T11:40:11.934Z,2.50
2022-08-22T11:42:38.641Z,2.65
2022-08-22T11:45:16.364Z,2.38
2022-08-22T11:47:43.448Z,2.60
2022-08-22T11:50:13.470Z,2.40
2022-08-22T11:52:40.585Z,2.67
2022-08-22T11:55:09.179Z,3.20
2022-08-22T11:57:36.531Z,2.65
2022-08-22T12:00:05.735Z,2.80
2022-08-22T12:02:32.990Z,2.60
2022-08-22T12:04:59.679Z,2.78
2022-08-22T12:07:26.221Z,3.13
2022-08-22T12:09:55.561Z,2.53
2022-08-22T12:12:22.179Z,2.60
2022-08-22T12:14:50.106Z,2.35
2022-08-22T12:17:51.086Z,2.63
2022-08-22T12:20:16.831Z,2.97
2022-08-22T12:22:44.412Z,3.08
2022-08-22T12:25:17.131Z,2.88
2022-08-22T12:27:48.585Z,3.17
2022-08-22T12:30:22.170Z,2.60
2022-08-22T12:32:49.260Z,1.83
2022-08-22T12:35:15.940Z,2.67
2022-08-22T12:37:52.294Z,2.78
2022-08-22T12:40:20.041Z,2.53
2022-08-22T12:42:46.788Z,2.60
2022-08-22T12:45:13.547Z,2.20
2022-08-22T12:47:42.249Z,2.58
2022-08-22T12:50:09.036Z,2.00
2022-08-22T12:52:39.358Z,2.40
2022-08-22T12:55:05.931Z,2.47
2022-08-22T12:57:34.605Z,2.78
2022-08-22T13:00:01.784Z,2.40
2022-08-22T13:02:28.526Z,2.42
2022-08-22T13:04:56.978Z,2.67
2022-08-22T13:07:23.551Z,2.90
2022-08-22T13:09:50.241Z,2.10
2022-08-22T13:12:20.106Z,2.60
2022-08-22T13:14:47.932Z,2.92
2022-08-22T13:17:24.308Z,2.53
2022-08-22T13:19:52.140Z,2.90
2022-08-22T13:22:18.698Z,2.42
2022-08-22T13:24:51.873Z,2.70
2022-08-22T13:27:20.270Z,2.58
2022-08-22T13:29:47.051Z,2.72
2022-08-22T13:32:13.613Z,2.33
2022-08-22T13:34:43.508Z,3.25
2022-08-22T13:37:10.364Z,2.65
2022-08-22T13:39:37.874Z,2.83
2022-08-22T13:42:04.769Z,2.15
2022-08-22T13:44:41.045Z,2.85
2022-08-22T13:47:14.607Z,2.38
2022-08-22T13:49:41.449Z,2.22
2022-08-22T13:52:08.367Z,2.15
2022-08-22T13:54:54.646Z,2.53
2022-08-22T13:57:23.720Z,2.75
2022-08-22T13:59:53.632Z,1.92
2022-08-22T14:02:23.017Z,2.40
2022-08-22T14:04:57.634Z,2.00
2022-08-22T14:07:25.835Z,2.30
2022-08-22T14:09:54.251Z,2.50
2022-08-22T14:12:21.901Z,2.22
2022-08-22T14:14:49.076Z,2.58
2022-08-22T14:17:19.013Z,2.60
2022-08-22T14:19:53.159Z,2.35
2022-08-22T14:22:32.491Z,2.28
2022-08-22T14:25:01.859Z,2.47
2022-08-22T14:27:29.600Z,3.08
2022-08-22T14:29:56.269Z,2.60
2022-08-22T14:32:25.820Z,2.20
2022-08-22T14:34:54.240Z,2.28
2022-08-22T14:37:20.952Z,2.03
2022-08-22T14:39:48.859Z,2.47
2022-08-22T14:42:17.445Z,2.35
2022-08-22T14:44:44.911Z,2.50
2022-08-22T14:47:30.358Z,2.88
2022-08-22T14:49:58.070Z,2.30
2022-08-22T14:52:25.348Z,2.80
2022-08-22T14:54:56.222Z,2.65
2022-08-22T14:57:23.150Z,2.15
2022-08-22T14:59:50.131Z,2.67
2022-08-22T15:02:17.025Z,2.58
2022-08-22T15:04:44.152Z,3.22
2022-08-22T15:07:11.073Z,2.88
2022-08-22T15:09:40.565Z,2.50
2022-08-22T15:12:08.854Z,2.58
2022-08-22T15:14:37.166Z,2.42
2022-08-22T15:17:05.588Z,2.28
2022-08-22T15:19:32.263Z,2.58
2022-08-22T15:21:59.312Z,2.60
2022-08-22T15:24:27.314Z,1.95
2022-08-22T15:26:57.261Z,2.45
2022-08-22T15:29:24.397Z,2.78
2022-08-22T15:31:51.095Z,2.67
2022-08-22T15:34:18.182Z,2.30
2022-08-22T15:36:44.780Z,2.90
2022-08-22T15:39:11.377Z,2.60
2022-08-22T15:41:40.441Z,2.95
2022-08-22T15:44:07.119Z,2.03
2022-08-22T15:46:34.081Z,2.67
2022-08-22T15:49:00.877Z,3.10
2022-08-22T15:51:27.463Z,2.88
2022-08-22T15:53:54.725Z,2.80
2022-08-22T15:56:22.373Z,3.15
2022-08-22T15:58:49.527Z,2.47
2022-08-22T16:01:20.091Z,2.20
2022-08-22T16:03:47.279Z,2.45
2022-08-22T16:06:16.232Z,2.45
2022-08-22T16:08:44.285Z,2.45
2022-08-22T16:11:10.864Z,2.80
2022-08-22T16:13:38.223Z,3.03
2022-08-22T16:16:05.319Z,2.35
2022-08-22T16:18:31.944Z,2.92
2022-08-22T16:20:58.568Z,2.28
2022-08-22T16:23:25.160Z,2.28
2022-08-22T16:25:52.780Z,2.33
2022-08-22T16:28:36.092Z,2.60
2022-08-22T16:31:08.989Z,3.35
2022-08-22T16:33:35.494Z,2.42
2022-08-22T16:36:02.125Z,2.45
2022-08-22T16:38:28.691Z,2.55
2022-08-22T16:40:55.279Z,3.08
2022-08-22T16:43:21.892Z,2.40
2022-08-22T16:45:48.526Z,2.10
2022-08-22T16:48:15.081Z,2.47
2022-08-22T16:50:41.723Z,2.20
2022-08-22T16:53:08.406Z,3.08
2022-08-22T16:55:35.925Z,2.33
2022-08-22T16:58:06.625Z,2.13
2022-08-22T17:00:33.592Z,2.73
2022-08-22T17:03:00.206Z,2.80
2022-08-22T17:05:29.491Z,2.43
2022-08-22T17:07:56.995Z,2.10
2022-08-22T17:10:23.540Z,2.00
2022-08-22T17:12:50.405Z,2.40
2022-08-22T17:15:17.012Z,2.53
2022-08-22T17:17:43.545Z,3.00
2022-08-22T17:20:10.110Z,2.83
2022-08-22T17:22:36.667Z,2.13
2022-08-22T17:25:03.296Z,2.50
2022-08-22T17:27:30.105Z,2.15
2022-08-22T17:29:56.688Z,2.87
2022-08-22T17:32:23.464Z,3.40
2022-08-22T17:34:50.044Z,1.95
2022-08-22T17:37:17.960Z,2.30
2022-08-22T17:39:44.630Z,2.67
2022-08-22T17:42:18.954Z,1.83
2022-08-22T17:44:47.763Z,2.58
2022-08-22T17:47:14.943Z,2.25
2022-08-22T17:49:41.504Z,2.63
2022-08-22T17:52:08.177Z,2.10
2022-08-22T17:54:34.741Z,2.27
2022-08-22T17:57:05.954Z,2.30
2022-08-22T17:59:32.777Z,2.10
2022-08-22T18:01:59.707Z,2.25
2022-08-22T18:04:26.616Z,2.30
2022-08-22T18:06:56.369Z,3.42
2022-08-22T18:09:23.075Z,2.80
2022-08-22T18:11:49.870Z,2.40
2022-08-22T18:14:16.428Z,2.80
2022-08-22T18:16:43.037Z,2.77
2022-08-22T18:19:09.894Z,2.20
2022-08-22T18:21:36.512Z,2.63
2022-08-22T18:24:03.441Z,2.80
2022-08-22T18:26:30.087Z,3.30
2022-08-22T18:28:57.685Z,2.77
2022-08-22T18:31:24.310Z,2.67
2022-08-22T18:33:51.195Z,3.20
2022-08-22T18:36:19.922Z,2.87
2022-08-22T18:38:47.255Z,2.57
2022-08-22T18:41:13.897Z,3.20
2022-08-22T18:43:41.334Z,2.80
2022-08-22T18:46:07.933Z,3.37
2022-08-22T18:48:34.555Z,2.40
2022-08-22T18:51:01.113Z,3.17
2022-08-22T18:53:27.672Z,2.60
2022-08-22T18:55:54.247Z,2.83
2022-08-22T18:58:22.396Z,2.33
2022-08-22T19:00:49.067Z,2.40
2022-08-22T19:03:15.610Z,5.00
2022-08-22T19:05:42.230Z,2.40
2022-08-22T19:08:08.789Z,2.93
2022-08-22T19:10:35.404Z,3.13
2022-08-22T19:13:02.030Z,2.77
2022-08-22T19:15:28.606Z,2.67
2022-08-22T19:17:55.457Z,2.67
2022-08-22T19:20:44.962Z,2.90
2022-08-22T19:23:11.497Z,2.53
2022-08-22T19:25:38.036Z,2.67
2022-08-22T19:28:04.609Z,3.20
2022-08-22T19:30:31.348Z,2.57
2022-08-22T19:32:59.194Z,2.53
2022-08-22T19:35:26.043Z,2.90
2022-08-22T19:37:53.451Z,3.20
2022-08-22T19:40:20.116Z,3.37
2022-08-22T19:42:49.796Z,2.47
2022-08-22T19:45:16.345Z,2.83
2022-08-22T19:47:42.943Z,3.93
2022-08-22T19:50:09.539Z,2.90
2022-08-22T19:52:36.120Z,2.90
2022-08-22T19:55:02.731Z,2.93
2022-08-22T19:57:29.320Z,3.00
2022-08-22T20:00:00.037Z,3.20
2022-08-22T20:02:26.644Z,2.53
2022-08-22T20:04:54.937Z,3.37
2022-08-22T20:07:21.632Z,2.50
2022-08-22T20:09:48.174Z,2.60
2022-08-22T20:12:15.775Z,3.20
2022-08-22T20:14:42.610Z,2.80
2022-08-22T20:17:09.230Z,3.27
2022-08-22T20:19:35.790Z,3.50
2022-08-22T20:22:03.628Z,3.30
2022-08-22T20:24:30.492Z,3.30
2022-08-22T20:27:13.399Z,2.97
2022-08-22T20:29:41.255Z,2.93
2022-08-22T20:32:07.848Z,2.90
2022-08-22T20:34:34.395Z,2.73
2022-08-22T20:37:23.719Z,3.60
2022-08-22T20:39:47.645Z,2.80
2022-08-22T20:42:25.389Z,2.97
2022-08-22T20:44:53.454Z,3.00
2022-08-22T20:47:22.204Z,2.73
2022-08-22T20:49:49.034Z,3.13
2022-08-22T20:52:15.592Z,3.13
2022-08-22T20:54:42.151Z,2.87
2022-08-22T20:57:08.729Z,2.90
2022-08-22T20:59:38.416Z,3.13
2022-08-22T21:02:05.026Z,2.90
2022-08-22T21:04:31.586Z,3.00
2022-08-22T21:06:58.117Z,3.00
2022-08-22T21:09:43.514Z,2.47
2022-08-22T21:12:10.150Z,2.73
2022-08-22T21:14:41.810Z,3.40
2022-08-22T21:17:08.410Z,2.90
2022-08-22T21:19:34.942Z,2.80
2022-08-22T21:22:01.481Z,2.83
2022-08-22T21:24:28.225Z,2.57
2022-08-22T21:26:54.786Z,2.60
2022-08-22T21:29:22.186Z,2.60
2022-08-22T21:31:48.754Z,2.90
2022-08-22T21:34:15.331Z,2.67
2022-08-22T21:36:41.922Z,3.07
2022-08-22T21:39:09.368Z,3.27
2022-08-22T21:41:35.920Z,2.60
2022-08-22T21:44:02.453Z,2.60
2022-08-22T21:46:29.105Z,2.30
2022-08-22T21:48:55.714Z,2.73
2022-08-22T21:51:22.424Z,3.00
2022-08-22T21:53:49.073Z,2.40
2022-08-22T21:56:35.622Z,2.40
2022-08-22T21:59:02.210Z,3.33
2022-08-22T22:01:28.925Z,3.40
2022-08-22T22:03:55.576Z,2.97
2022-08-22T22:06:22.169Z,3.50
2022-08-22T22:08:48.915Z,3.10
2022-08-22T22:11:15.575Z,3.67
2022-08-22T22:13:42.366Z,3.10
2022-08-22T22:16:09.049Z,2.20
2022-08-22T22:18:35.569Z,4.17
2022-08-22T22:21:02.134Z,4.40
2022-08-22T22:23:28.771Z,3.03
2022-08-22T22:25:55.327Z,3.00
2022-08-22T22:28:22.085Z,3.03
2022-08-22T22:30:53.121Z,3.60
2022-08-22T22:33:19.693Z,3.33
2022-08-22T22:35:46.275Z,3.40
2022-08-22T22:38:13.581Z,2.77
2022-08-22T22:40:41.352Z,3.13
2022-08-22T22:43:07.928Z,3.30
2022-08-22T22:45:37.353Z,3.17
2022-08-22T22:48:03.911Z,3.27
2022-08-22T22:50:30.465Z,3.50
2022-08-22T22:52:57.203Z,3.40
2022-08-22T22:55:24.160Z,3.20
2022-08-22T22:57:58.376Z,3.17
2022-08-22T23:00:26.034Z,3.30
2022-08-22T23:02:57.241Z,3.57
2022-08-22T23:05:23.837Z,3.00
2022-08-22T23:07:50.501Z,3.30
2022-08-22T23:10:21.819Z,3.70
2022-08-22T23:12:48.731Z,3.60
2022-08-22T23:15:15.305Z,3.10
2022-08-22T23:17:42.530Z,3.27
2022-08-22T23:20:09.114Z,3.30
2022-08-22T23:22:35.804Z,3.00
2022-08-22T23:25:02.380Z,3.70
2022-08-22T23:27:29.003Z,4.40
2022-08-22T23:29:55.539Z,3.20
2022-08-22T23:32:22.135Z,3.47
2022-08-22T23:34:48.879Z,3.27
2022-08-22T23:37:15.530Z,3.30
2022-08-22T23:39:42.198Z,3.10
2022-08-22T23:42:08.778Z,3.10
2022-08-22T23:44:35.358Z,3.00
2022-08-22T23:47:02.036Z,3.40
2022-08-22T23:49:28.604Z,3.20
2022-08-22T23:51:55.163Z,2.97
2022-08-22T23:54:22.362Z,3.10
2022-08-22T23:56:48.917Z,2.80
2022-08-22T23:59:15.601Z,2.73
